sensor_id;sensor_type;location;lat;lon;timestamp;P1;durP1;ratioP1;P2;durP2;ratioP2
34557;SDS011;24708;48.888;8.736;2022-08-19T05:30:58;45.03;;;23.35;;
34557;SDS011;24708;48.888;8.736;2022-08-19T05:33:26;35.05;;;21.98;;
34557;SDS011;24708;48.888;8.736;2022-08-19T05:35:54;38.08;;;21.38;;
34557;SDS011;24708;48.888;8.736;2022-08-19T05:38:22;34.38;;;22.33;;
34557;SDS011;24708;48.888;8.736;2022-08-19T05:40:50;31.67;;;21.52;;
34557;SDS011;24708;48.888;8.736;2022-08-19T05:43:17;31.30;;;20.75;;
34557;SDS011;24708;48.888;8.736;2022-08-19T05:45:44;33.80;;;21.67;;
34557;SDS011;24708;48.888;8.736;2022-08-19T05:48:13;32.42;;;21.33;;
34557;SDS011;24708;48.888;8.736;2022-08-19T05:50:41;40.53;;;21.40;;
34557;SDS011;24708;48.888;8.736;2022-08-19T05:53:08;32.00;;;21.83;;
34557;SDS011;24708;48.888;8.736;2022-08-19T05:55:36;34.50;;;20.73;;
34557;SDS011;24708;48.888;8.736;2022-08-19T05:58:05;38.13;;;21.85;;
34557;SDS011;24708;48.888;8.736;2022-08-19T06:00:35;42.47;;;21.40;;
34557;SDS011;24708;48.888;8.736;2022-08-19T06:03:03;30.52;;;21.05;;
34557;SDS011;24708;48.888;8.736;2022-08-19T06:05:38;33.78;;;21.67;;
34557;SDS011;24708;48.888;8.736;2022-08-19T06:08:17;30.48;;;21.25;;
34557;SDS011;24708;48.888;8.736;2022-08-19T06:10:45;29.98;;;20.13;;
34557;SDS011;24708;48.888;8.736;2022-08-19T06:13:13;31.02;;;19.73;;
34557;SDS011;24708;48.888;8.736;2022-08-19T06:15:41;29.10;;;20.00;;
34557;SDS011;24708;48.888;8.736;2022-08-19T06:18:11;33.85;;;19.65;;
34557;SDS011;24708;48.888;8.736;2022-08-19T06:20:39;36.50;;;20.23;;
34557;SDS011;24708;48.888;8.736;2022-08-19T06:23:21;43.97;;;21.42;;
34557;SDS011;24708;48.888;8.736;2022-08-19T06:25:50;35.17;;;21.13;;
34557;SDS011;24708;48.888;8.736;2022-08-19T06:28:17;38.53;;;20.67;;
34557;SDS011;24708;48.888;8.736;2022-08-19T06:30:45;28.90;;;18.77;;
34557;SDS011;24708;48.888;8.736;2022-08-19T06:33:12;30.30;;;18.83;;
34557;SDS011;24708;48.888;8.736;2022-08-19T06:35:40;30.30;;;19.10;;
34557;SDS011;24708;48.888;8.736;2022-08-19T06:38:08;31.27;;;20.30;;
34557;SDS011;24708;48.888;8.736;2022-08-19T06:40:36;27.80;;;18.63;;
34557;SDS011;24708;48.888;8.736;2022-08-19T06:43:04;30.67;;;19.85;;
34557;SDS011;24708;48.888;8.736;2022-08-19T06:45:36;34.40;;;21.35;;
34557;SDS011;24708;48.888;8.736;2022-08-19T06:48:05;33.47;;;17.92;;
34557;SDS011;24708;48.888;8.736;2022-08-19T06:50:33;25.73;;;17.80;;
34557;SDS011;24708;48.888;8.736;2022-08-19T06:53:05;29.90;;;17.80;;
34557;SDS011;24708;48.888;8.736;2022-08-19T06:55:32;28.02;;;16.75;;
34557;SDS011;24708;48.888;8.736;2022-08-19T06:58:02;29.48;;;18.98;;
34557;SDS011;24708;48.888;8.736;2022-08-19T07:00:30;26.08;;;17.42;;
34557;SDS011;24708;48.888;8.736;2022-08-19T07:03:02;27.67;;;18.08;;
34557;SDS011;24708;48.888;8.736;2022-08-19T07:05:38;25.75;;;16.95;;
34557;SDS011;24708;48.888;8.736;2022-08-19T07:08:11;29.75;;;17.58;;
34557;SDS011;24708;48.888;8.736;2022-08-19T07:10:44;32.80;;;17.88;;
34557;SDS011;24708;48.888;8.736;2022-08-19T07:13:12;26.73;;;18.00;;
34557;SDS011;24708;48.888;8.736;2022-08-19T07:15:39;29.98;;;17.42;;
34557;SDS011;24708;48.888;8.736;2022-08-19T07:18:08;25.33;;;17.15;;
34557;SDS011;24708;48.888;8.736;2022-08-19T07:20:38;28.55;;;17.92;;
34557;SDS011;24708;48.888;8.736;2022-08-19T07:23:08;27.45;;;19.13;;
34557;SDS011;24708;48.888;8.736;2022-08-19T07:25:41;29.67;;;18.75;;
34557;SDS011;24708;48.888;8.736;2022-08-19T07:28:19;24.33;;;17.92;;
34557;SDS011;24708;48.888;8.736;2022-08-19T07:30:50;24.52;;;17.20;;
34557;SDS011;24708;48.888;8.736;2022-08-19T07:33:18;33.22;;;18.05;;
34557;SDS011;24708;48.888;8.736;2022-08-19T07:35:46;27.83;;;19.15;;
34557;SDS011;24708;48.888;8.736;2022-08-19T07:38:13;34.95;;;16.73;;
34557;SDS011;24708;48.888;8.736;2022-08-19T07:40:43;27.77;;;17.13;;
34557;SDS011;24708;48.888;8.736;2022-08-19T07:43:12;28.65;;;17.23;;
34557;SDS011;24708;48.888;8.736;2022-08-19T07:45:44;26.52;;;17.63;;
34557;SDS011;24708;48.888;8.736;2022-08-19T07:48:13;28.63;;;17.63;;
34557;SDS011;24708;48.888;8.736;2022-08-19T07:50:41;28.60;;;16.73;;
34557;SDS011;24708;48.888;8.736;2022-08-19T07:53:08;28.42;;;16.75;;
34557;SDS011;24708;48.888;8.736;2022-08-19T07:55:35;29.50;;;17.70;;
34557;SDS011;24708;48.888;8.736;2022-08-19T07:58:08;31.42;;;17.98;;
34557;SDS011;24708;48.888;8.736;2022-08-19T08:00:37;26.52;;;16.10;;
34557;SDS011;24708;48.888;8.736;2022-08-19T08:03:05;22.77;;;16.20;;
34557;SDS011;24708;48.888;8.736;2022-08-19T08:05:32;35.47;;;17.80;;
34557;SDS011;24708;48.888;8.736;2022-08-19T08:08:19;27.40;;;16.88;;
34557;SDS011;24708;48.888;8.736;2022-08-19T08:11:15;29.33;;;15.85;;
34557;SDS011;24708;48.888;8.736;2022-08-19T08:13:46;26.55;;;14.85;;
34557;SDS011;24708;48.888;8.736;2022-08-19T08:16:33;20.55;;;13.57;;
34557;SDS011;24708;48.888;8.736;2022-08-19T08:19:05;26.83;;;14.80;;
34557;SDS011;24708;48.888;8.736;2022-08-19T08:21:46;23.67;;;15.27;;
34557;SDS011;24708;48.888;8.736;2022-08-19T08:24:14;25.52;;;14.70;;
34557;SDS011;24708;48.888;8.736;2022-08-19T08:26:42;19.10;;;12.30;;
34557;SDS011;24708;48.888;8.736;2022-08-19T08:29:17;21.30;;;13.13;;
34557;SDS011;24708;48.888;8.736;2022-08-19T08:31:47;21.02;;;12.95;;
34557;SDS011;24708;48.888;8.736;2022-08-19T08:34:25;18.83;;;12.75;;
34557;SDS011;24708;48.888;8.736;2022-08-19T08:36:52;22.65;;;14.15;;
34557;SDS011;24708;48.888;8.736;2022-08-19T08:39:20;22.15;;;12.77;;
34557;SDS011;24708;48.888;8.736;2022-08-19T08:47:31;19.90;;;12.55;;
34557;SDS011;24708;48.888;8.736;2022-08-19T08:50:06;20.08;;;13.82;;
34557;SDS011;24708;48.888;8.736;2022-08-19T08:52:41;24.60;;;11.95;;
34557;SDS011;24708;48.888;8.736;2022-08-19T08:55:15;21.25;;;12.20;;
34557;SDS011;24708;48.888;8.736;2022-08-19T09:00:26;18.30;;;11.63;;
34557;SDS011;24708;48.888;8.736;2022-08-19T09:02:57;18.88;;;11.20;;
34557;SDS011;24708;48.888;8.736;2022-08-19T09:05:45;17.73;;;12.63;;
34557;SDS011;24708;48.888;8.736;2022-08-19T09:08:39;20.17;;;11.15;;
34557;SDS011;24708;48.888;8.736;2022-08-19T09:11:45;15.65;;;11.93;;
34557;SDS011;24708;48.888;8.736;2022-08-19T09:15:09;22.27;;;13.02;;
34557;SDS011;24708;48.888;8.736;2022-08-19T09:17:29;18.15;;;12.18;;
34557;SDS011;24708;48.888;8.736;2022-08-19T09:20:00;23.05;;;13.05;;
34557;SDS011;24708;48.888;8.736;2022-08-19T09:22:36;15.10;;;10.40;;
34557;SDS011;24708;48.888;8.736;2022-08-19T09:25:05;13.63;;;10.40;;
34557;SDS011;24708;48.888;8.736;2022-08-19T09:27:35;23.27;;;10.13;;
34557;SDS011;24708;48.888;8.736;2022-08-19T09:30:10;17.33;;;9.93;;
34557;SDS011;24708;48.888;8.736;2022-08-19T09:32:41;17.52;;;10.60;;
34557;SDS011;24708;48.888;8.736;2022-08-19T09:35:10;17.15;;;9.90;;
34557;SDS011;24708;48.888;8.736;2022-08-19T09:37:39;13.18;;;10.07;;
34557;SDS011;24708;48.888;8.736;2022-08-19T09:40:08;16.60;;;9.65;;
34557;SDS011;24708;48.888;8.736;2022-08-19T09:42:38;17.48;;;8.02;;
34557;SDS011;24708;48.888;8.736;2022-08-19T09:45:17;14.80;;;9.35;;
34557;SDS011;24708;48.888;8.736;2022-08-19T09:47:48;13.00;;;8.45;;
34557;SDS011;24708;48.888;8.736;2022-08-19T09:50:20;18.77;;;8.10;;
34557;SDS011;24708;48.888;8.736;2022-08-19T09:52:49;11.75;;;8.52;;
34557;SDS011;24708;48.888;8.736;2022-08-19T09:55:23;14.25;;;7.90;;
34557;SDS011;24708;48.888;8.736;2022-08-19T09:57:58;14.75;;;9.00;;
34557;SDS011;24708;48.888;8.736;2022-08-19T10:00:27;12.55;;;7.25;;
34557;SDS011;24708;48.888;8.736;2022-08-19T10:02:55;10.05;;;6.95;;
34557;SDS011;24708;48.888;8.736;2022-08-19T10:05:22;12.88;;;7.32;;
34557;SDS011;24708;48.888;8.736;2022-08-19T10:08:09;12.00;;;6.57;;
34557;SDS011;24708;48.888;8.736;2022-08-19T10:10:41;11.63;;;5.90;;
34557;SDS011;24708;48.888;8.736;2022-08-19T10:13:13;11.63;;;6.32;;
34557;SDS011;24708;48.888;8.736;2022-08-19T10:15:42;7.90;;;6.07;;
34557;SDS011;24708;48.888;8.736;2022-08-19T10:18:13;10.23;;;6.45;;
34557;SDS011;24708;48.888;8.736;2022-08-19T10:20:43;9.70;;;6.80;;
34557;SDS011;24708;48.888;8.736;2022-08-19T10:23:18;8.65;;;6.43;;
34557;SDS011;24708;48.888;8.736;2022-08-19T10:25:47;9.77;;;6.45;;
34557;SDS011;24708;48.888;8.736;2022-08-19T10:28:16;10.68;;;6.35;;
34557;SDS011;24708;48.888;8.736;2022-08-19T10:30:45;10.32;;;5.85;;
34557;SDS011;24708;48.888;8.736;2022-08-19T10:33:13;10.43;;;6.47;;
34557;SDS011;24708;48.888;8.736;2022-08-19T10:36:03;10.40;;;6.13;;
34557;SDS011;24708;48.888;8.736;2022-08-19T10:38:33;12.07;;;6.03;;
34557;SDS011;24708;48.888;8.736;2022-08-19T10:41:06;9.50;;;6.18;;
34557;SDS011;24708;48.888;8.736;2022-08-19T10:43:36;8.15;;;6.07;;
34557;SDS011;24708;48.888;8.736;2022-08-19T10:46:06;8.98;;;6.80;;
34557;SDS011;24708;48.888;8.736;2022-08-19T10:48:40;10.35;;;6.65;;
34557;SDS011;24708;48.888;8.736;2022-08-19T10:51:08;11.80;;;5.82;;
34557;SDS011;24708;48.888;8.736;2022-08-19T10:53:56;14.48;;;6.15;;
34557;SDS011;24708;48.888;8.736;2022-08-19T10:56:25;11.90;;;6.57;;
34557;SDS011;24708;48.888;8.736;2022-08-19T10:59:14;9.68;;;5.10;;
34557;SDS011;24708;48.888;8.736;2022-08-19T11:01:42;7.10;;;5.45;;
34557;SDS011;24708;48.888;8.736;2022-08-19T11:04:11;11.68;;;5.40;;
34557;SDS011;24708;48.888;8.736;2022-08-19T11:06:40;10.00;;;5.30;;
34557;SDS011;24708;48.888;8.736;2022-08-19T11:09:10;7.05;;;4.53;;
34557;SDS011;24708;48.888;8.736;2022-08-19T11:11:38;9.68;;;4.78;;
34557;SDS011;24708;48.888;8.736;2022-08-19T11:14:08;6.07;;;4.55;;
34557;SDS011;24708;48.888;8.736;2022-08-19T11:16:40;7.63;;;5.57;;
34557;SDS011;24708;48.888;8.736;2022-08-19T11:19:10;10.35;;;4.75;;
34557;SDS011;24708;48.888;8.736;2022-08-19T11:21:39;6.93;;;5.30;;
34557;SDS011;24708;48.888;8.736;2022-08-19T11:24:09;7.03;;;4.63;;
34557;SDS011;24708;48.888;8.736;2022-08-19T11:26:39;6.97;;;5.38;;
34557;SDS011;24708;48.888;8.736;2022-08-19T11:29:08;8.68;;;4.97;;
34557;SDS011;24708;48.888;8.736;2022-08-19T11:31:38;6.70;;;4.70;;
34557;SDS011;24708;48.888;8.736;2022-08-19T11:34:09;12.60;;;5.45;;
34557;SDS011;24708;48.888;8.736;2022-08-19T11:36:40;5.97;;;4.30;;
34557;SDS011;24708;48.888;8.736;2022-08-19T11:39:10;5.97;;;4.82;;
34557;SDS011;24708;48.888;8.736;2022-08-19T11:41:39;7.88;;;5.32;;
34557;SDS011;24708;48.888;8.736;2022-08-19T11:44:06;9.10;;;4.65;;
34557;SDS011;24708;48.888;8.736;2022-08-19T11:46:35;10.95;;;4.70;;
34557;SDS011;24708;48.888;8.736;2022-08-19T11:49:04;9.45;;;5.13;;
34557;SDS011;24708;48.888;8.736;2022-08-19T11:51:39;8.57;;;4.47;;
34557;SDS011;24708;48.888;8.736;2022-08-19T11:54:10;7.35;;;4.78;;
34557;SDS011;24708;48.888;8.736;2022-08-19T11:56:39;8.63;;;5.40;;
34557;SDS011;24708;48.888;8.736;2022-08-19T11:59:07;11.57;;;5.55;;
34557;SDS011;24708;48.888;8.736;2022-08-19T12:01:40;8.13;;;5.25;;
34557;SDS011;24708;48.888;8.736;2022-08-19T12:04:09;6.07;;;4.25;;
34557;SDS011;24708;48.888;8.736;2022-08-19T12:06:38;6.68;;;4.80;;
34557;SDS011;24708;48.888;8.736;2022-08-19T12:09:08;9.07;;;5.25;;
34557;SDS011;24708;48.888;8.736;2022-08-19T12:11:38;10.75;;;5.07;;
34557;SDS011;24708;48.888;8.736;2022-08-19T12:14:06;15.73;;;6.38;;
34557;SDS011;24708;48.888;8.736;2022-08-19T12:16:40;8.55;;;4.38;;
34557;SDS011;24708;48.888;8.736;2022-08-19T12:19:17;9.38;;;4.53;;
34557;SDS011;24708;48.888;8.736;2022-08-19T12:21:48;9.88;;;4.55;;
34557;SDS011;24708;48.888;8.736;2022-08-19T12:24:16;8.23;;;4.03;;
34557;SDS011;24708;48.888;8.736;2022-08-19T12:26:49;8.05;;;4.95;;
34557;SDS011;24708;48.888;8.736;2022-08-19T12:29:20;7.63;;;5.25;;
34557;SDS011;24708;48.888;8.736;2022-08-19T12:31:50;7.63;;;4.63;;
34557;SDS011;24708;48.888;8.736;2022-08-19T12:34:18;6.45;;;4.85;;
34557;SDS011;24708;48.888;8.736;2022-08-19T12:36:46;7.13;;;4.50;;
34557;SDS011;24708;48.888;8.736;2022-08-19T12:39:15;6.03;;;4.57;;
34557;SDS011;24708;48.888;8.736;2022-08-19T12:41:43;6.28;;;5.30;;
34557;SDS011;24708;48.888;8.736;2022-08-19T12:44:20;5.13;;;3.92;;
34557;SDS011;24708;48.888;8.736;2022-08-19T12:46:55;13.38;;;5.38;;
34557;SDS011;24708;48.888;8.736;2022-08-19T12:49:23;6.28;;;4.78;;
34557;SDS011;24708;48.888;8.736;2022-08-19T12:52:11;11.43;;;4.50;;
34557;SDS011;24708;48.888;8.736;2022-08-19T12:54:49;8.75;;;5.50;;
34557;SDS011;24708;48.888;8.736;2022-08-19T12:57:22;10.65;;;5.28;;
34557;SDS011;24708;48.888;8.736;2022-08-19T12:59:59;13.00;;;7.45;;
34557;SDS011;24708;48.888;8.736;2022-08-19T13:02:31;10.90;;;6.00;;
34557;SDS011;24708;48.888;8.736;2022-08-19T13:05:05;7.47;;;5.60;;
34557;SDS011;24708;48.888;8.736;2022-08-19T13:07:35;7.30;;;5.55;;
34557;SDS011;24708;48.888;8.736;2022-08-19T13:10:05;6.75;;;4.93;;
34557;SDS011;24708;48.888;8.736;2022-08-19T13:12:34;14.20;;;7.03;;
34557;SDS011;24708;48.888;8.736;2022-08-19T13:15:02;10.48;;;6.03;;
34557;SDS011;24708;48.888;8.736;2022-08-19T13:17:37;10.10;;;5.32;;
34557;SDS011;24708;48.888;8.736;2022-08-19T13:20:06;8.07;;;5.47;;
34557;SDS011;24708;48.888;8.736;2022-08-19T13:22:35;20.58;;;6.95;;
34557;SDS011;24708;48.888;8.736;2022-08-19T13:25:04;12.70;;;5.78;;
34557;SDS011;24708;48.888;8.736;2022-08-19T13:27:32;7.03;;;5.20;;
34557;SDS011;24708;48.888;8.736;2022-08-19T13:30:00;12.00;;;6.20;;
34557;SDS011;24708;48.888;8.736;2022-08-19T13:32:47;9.40;;;5.35;;
34557;SDS011;24708;48.888;8.736;2022-08-19T13:35:34;18.25;;;6.85;;
34557;SDS011;24708;48.888;8.736;2022-08-19T13:38:02;11.05;;;5.80;;
34557;SDS011;24708;48.888;8.736;2022-08-19T13:40:37;10.15;;;5.38;;
34557;SDS011;24708;48.888;8.736;2022-08-19T13:43:07;7.35;;;5.85;;
34557;SDS011;24708;48.888;8.736;2022-08-19T13:45:49;6.63;;;5.17;;
34557;SDS011;24708;48.888;8.736;2022-08-19T13:48:20;8.75;;;5.40;;
34557;SDS011;24708;48.888;8.736;2022-08-19T13:50:48;8.13;;;5.82;;
34557;SDS011;24708;48.888;8.736;2022-08-19T13:53:15;7.75;;;5.90;;
34557;SDS011;24708;48.888;8.736;2022-08-19T13:55:44;6.38;;;5.30;;
34557;SDS011;24708;48.888;8.736;2022-08-19T13:58:11;6.22;;;4.97;;
34557;SDS011;24708;48.888;8.736;2022-08-19T14:00:40;10.30;;;6.00;;
34557;SDS011;24708;48.888;8.736;2022-08-19T14:03:11;7.60;;;6.28;;
34557;SDS011;24708;48.888;8.736;2022-08-19T14:05:38;7.20;;;6.15;;
34557;SDS011;24708;48.888;8.736;2022-08-19T14:08:05;7.65;;;5.72;;
34557;SDS011;24708;48.888;8.736;2022-08-19T14:10:33;11.82;;;5.75;;
34557;SDS011;24708;48.888;8.736;2022-08-19T14:13:02;7.05;;;4.95;;
34557;SDS011;24708;48.888;8.736;2022-08-19T14:15:30;12.35;;;6.80;;
34557;SDS011;24708;48.888;8.736;2022-08-19T14:17:58;7.07;;;5.43;;
34557;SDS011;24708;48.888;8.736;2022-08-19T14:20:26;9.65;;;6.25;;
34557;SDS011;24708;48.888;8.736;2022-08-19T14:22:53;7.90;;;5.22;;
34557;SDS011;24708;48.888;8.736;2022-08-19T14:25:23;8.48;;;5.20;;
34557;SDS011;24708;48.888;8.736;2022-08-19T14:27:52;7.82;;;5.70;;
34557;SDS011;24708;48.888;8.736;2022-08-19T14:30:24;7.43;;;5.10;;
34557;SDS011;24708;48.888;8.736;2022-08-19T14:32:54;7.03;;;6.07;;
34557;SDS011;24708;48.888;8.736;2022-08-19T14:35:22;6.35;;;5.40;;
34557;SDS011;24708;48.888;8.736;2022-08-19T14:37:50;7.10;;;4.90;;
34557;SDS011;24708;48.888;8.736;2022-08-19T14:40:22;10.70;;;5.70;;
34557;SDS011;24708;48.888;8.736;2022-08-19T14:42:55;9.18;;;6.43;;
34557;SDS011;24708;48.888;8.736;2022-08-19T14:45:26;7.93;;;5.03;;
34557;SDS011;24708;48.888;8.736;2022-08-19T14:47:55;7.60;;;6.05;;
34557;SDS011;24708;48.888;8.736;2022-08-19T14:50:23;11.75;;;4.90;;
34557;SDS011;24708;48.888;8.736;2022-08-19T14:52:56;7.28;;;5.25;;
34557;SDS011;24708;48.888;8.736;2022-08-19T14:55:25;5.70;;;5.10;;
34557;SDS011;24708;48.888;8.736;2022-08-19T14:57:53;14.10;;;5.75;;
34557;SDS011;24708;48.888;8.736;2022-08-19T15:00:23;8.15;;;5.65;;
34557;SDS011;24708;48.888;8.736;2022-08-19T15:02:51;8.35;;;5.20;;
34557;SDS011;24708;48.888;8.736;2022-08-19T15:05:21;9.15;;;5.03;;
34557;SDS011;24708;48.888;8.736;2022-08-19T15:07:48;6.97;;;5.22;;
34557;SDS011;24708;48.888;8.736;2022-08-19T15:10:15;5.88;;;4.60;;
34557;SDS011;24708;48.888;8.736;2022-08-19T15:12:43;5.10;;;4.40;;
34557;SDS011;24708;48.888;8.736;2022-08-19T15:15:16;6.45;;;4.82;;
34557;SDS011;24708;48.888;8.736;2022-08-19T15:17:44;7.18;;;5.53;;
34557;SDS011;24708;48.888;8.736;2022-08-19T15:20:15;5.82;;;4.60;;
34557;SDS011;24708;48.888;8.736;2022-08-19T15:22:44;6.27;;;4.93;;
34557;SDS011;24708;48.888;8.736;2022-08-19T15:25:13;11.23;;;5.18;;
34557;SDS011;24708;48.888;8.736;2022-08-19T15:27:43;6.57;;;4.80;;
34557;SDS011;24708;48.888;8.736;2022-08-19T15:30:11;6.55;;;4.78;;
34557;SDS011;24708;48.888;8.736;2022-08-19T15:32:39;8.98;;;4.45;;
34557;SDS011;24708;48.888;8.736;2022-08-19T15:35:06;7.45;;;5.10;;
34557;SDS011;24708;48.888;8.736;2022-08-19T15:37:34;5.15;;;4.32;;
34557;SDS011;24708;48.888;8.736;2022-08-19T15:40:04;5.05;;;4.55;;
34557;SDS011;24708;48.888;8.736;2022-08-19T15:42:35;4.90;;;4.35;;
34557;SDS011;24708;48.888;8.736;2022-08-19T15:45:04;6.70;;;3.95;;
34557;SDS011;24708;48.888;8.736;2022-08-19T15:47:33;6.50;;;4.53;;
34557;SDS011;24708;48.888;8.736;2022-08-19T15:50:09;9.05;;;4.60;;
34557;SDS011;24708;48.888;8.736;2022-08-19T15:52:48;6.85;;;4.60;;
34557;SDS011;24708;48.888;8.736;2022-08-19T15:55:34;8.63;;;4.20;;
34557;SDS011;24708;48.888;8.736;2022-08-19T15:58:04;6.25;;;4.25;;
